sensor_id;sensor_type;location;lat;lon;timestamp;pressure;altitude;pressure_sealevel;temperature;humidity
48964;BME280;34776;48.180;16.420;2022-12-10T00:01:18;98534.28;;;3.63;100.00
48964;BME280;34776;48.180;16.420;2022-12-10T00:03:44;98523.19;;;3.57;100.00
48964;BME280;34776;48.180;16.420;2022-12-10T00:06:13;98524.38;;;3.50;100.00
48964;BME280;34776;48.180;16.420;2022-12-10T00:08:39;98530.25;;;3.55;100.00
48964;BME280;34776;48.180;16.420;2022-12-10T00:11:07;98528.31;;;3.60;100.00
48964;BME280;34776;48.180;16.420;2022-12-10T00:13:33;98528.16;;;3.63;100.00
48964;BME280;34776;48.180;16.420;2022-12-10T00:16:00;98530.00;;;3.61;100.00
48964;BME280;34776;48.180;16.420;2022-12-10T00:18:25;98528.31;;;3.60;100.00
48964;BME280;34776;48.180;16.420;2022-12-10T00:20:51;98519.66;;;3.58;100.00
48964;BME280;34776;48.180;16.420;2022-12-10T00:23:16;98528.16;;;3.63;100.00
48964;BME280;34776;48.180;16.420;2022-12-10T00:25:42;98521.78;;;3.69;100.00
48964;BME280;34776;48.180;16.420;2022-12-10T00:28:07;98531.72;;;3.62;100.00
48964;BME280;34776;48.180;16.420;2022-12-10T00:30:33;98533.41;;;3.63;100.00
48964;BME280;34776;48.180;16.420;2022-12-10T00:32:58;98544.13;;;3.58;100.00
48964;BME280;34776;48.180;16.420;2022-12-10T00:35:24;98533.69;;;3.57;100.00
48964;BME280;34776;48.180;16.420;2022-12-10T00:37:49;98548.38;;;3.61;100.00
48964;BME280;34776;48.180;16.420;2022-12-10T00:40:15;98546.38;;;3.68;100.00
48964;BME280;34776;48.180;16.420;2022-12-10T00:42:40;98543.53;;;3.72;100.00
48964;BME280;34776;48.180;16.420;2022-12-10T00:45:06;98544.38;;;3.73;100.00
48964;BME280;34776;48.180;16.420;2022-12-10T00:47:31;98546.06;;;3.74;100.00
48964;BME280;34776;48.180;16.420;2022-12-10T00:49:57;98550.22;;;3.79;100.00
48964;BME280;34776;48.180;16.420;2022-12-10T00:52:22;98560.72;;;3.79;100.00
48964;BME280;34776;48.180;16.420;2022-12-10T00:54:47;98556.41;;;3.78;100.00
48964;BME280;34776;48.180;16.420;2022-12-10T00:57:13;98558.88;;;3.81;100.00
48964;BME280;34776;48.180;16.420;2022-12-10T00:59:38;98556.16;;;3.84;100.00
48964;BME280;34776;48.180;16.420;2022-12-10T01:02:03;98577.94;;;3.86;100.00
48964;BME280;34776;48.180;16.420;2022-12-10T01:04:29;98581.38;;;3.89;100.00
48964;BME280;34776;48.180;16.420;2022-12-10T01:06:55;98578.84;;;3.85;100.00
48964;BME280;34776;48.180;16.420;2022-12-10T01:09:26;98574.28;;;3.91;100.00
48964;BME280;34776;48.180;16.420;2022-12-10T01:11:52;98563.75;;;3.91;100.00
48964;BME280;34776;48.180;16.420;2022-12-10T01:14:24;98553.25;;;3.91;100.00
48964;BME280;34776;48.180;16.420;2022-12-10T01:16:54;98553.25;;;3.91;100.00
48964;BME280;34776;48.180;16.420;2022-12-10T01:19:20;98561.03;;;3.92;100.00
48964;BME280;34776;48.180;16.420;2022-12-10T01:21:50;98566.16;;;3.95;100.00
48964;BME280;34776;48.180;16.420;2022-12-10T01:24:16;98568.91;;;3.92;100.00
48964;BME280;34776;48.180;16.420;2022-12-10T01:26:41;98571.69;;;3.89;100.00
48964;BME280;34776;48.180;16.420;2022-12-10T01:29:06;98564.66;;;3.90;100.00
48964;BME280;34776;48.180;16.420;2022-12-10T01:31:35;98558.50;;;3.91;100.00
48964;BME280;34776;48.180;16.420;2022-12-10T01:34:01;98565.19;;;3.98;100.00
48964;BME280;34776;48.180;16.420;2022-12-10T01:36:29;98569.44;;;4.00;100.00
48964;BME280;34776;48.180;16.420;2022-12-10T01:38:56;98580.53;;;4.07;100.00
48964;BME280;34776;48.180;16.420;2022-12-10T01:41:24;98579.56;;;4.10;100.00
48964;BME280;34776;48.180;16.420;2022-12-10T01:46:23;98578.78;;;4.07;100.00
48964;BME280;34776;48.180;16.420;2022-12-10T01:48:49;98569.88;;;4.10;100.00
48964;BME280;34776;48.180;16.420;2022-12-10T01:51:15;98566.31;;;4.11;100.00
48964;BME280;34776;48.180;16.420;2022-12-10T01:53:42;98561.84;;;4.13;100.00
48964;BME280;34776;48.180;16.420;2022-12-10T01:56:09;98560.22;;;4.11;100.00
48964;BME280;34776;48.180;16.420;2022-12-10T01:58:35;98566.19;;;4.14;100.00
48964;BME280;34776;48.180;16.420;2022-12-10T02:01:11;98566.19;;;4.14;100.00
48964;BME280;34776;48.180;16.420;2022-12-10T02:03:52;98588.66;;;4.21;100.00
48964;BME280;34776;48.180;16.420;2022-12-10T02:06:31;98585.91;;;4.24;100.00
48964;BME280;34776;48.180;16.420;2022-12-10T02:11:34;98589.81;;;4.35;100.00
48964;BME280;34776;48.180;16.420;2022-12-10T02:14:06;98591.66;;;4.33;99.69
48964;BME280;34776;48.180;16.420;2022-12-10T02:16:40;98596.00;;;4.34;99.92
48964;BME280;34776;48.180;16.420;2022-12-10T02:22:06;98596.19;;;4.29;98.94
48964;BME280;34776;48.180;16.420;2022-12-10T02:24:34;98589.94;;;4.32;99.70
48964;BME280;34776;48.180;16.420;2022-12-10T02:29:33;98576.50;;;4.38;99.76
48964;BME280;34776;48.180;16.420;2022-12-10T02:32:09;98575.72;;;4.36;99.18
48964;BME280;34776;48.180;16.420;2022-12-10T02:34:40;98583.63;;;4.36;99.00
48964;BME280;34776;48.180;16.420;2022-12-10T02:37:21;98596.63;;;4.39;99.30
48964;BME280;34776;48.180;16.420;2022-12-10T02:39:49;98605.28;;;4.41;98.84
48964;BME280;34776;48.180;16.420;2022-12-10T02:42:17;98591.34;;;4.39;98.29
48964;BME280;34776;48.180;16.420;2022-12-10T02:44:45;98598.34;;;4.40;98.33
48964;BME280;34776;48.180;16.420;2022-12-10T02:47:15;98596.72;;;4.37;97.70
48964;BME280;34776;48.180;16.420;2022-12-10T02:49:41;98603.59;;;4.40;98.12
48964;BME280;34776;48.180;16.420;2022-12-10T02:52:13;98606.56;;;4.32;96.98
48964;BME280;34776;48.180;16.420;2022-12-10T02:54:45;98605.88;;;4.29;97.11
48964;BME280;34776;48.180;16.420;2022-12-10T03:00:16;98614.41;;;4.34;97.18
48964;BME280;34776;48.180;16.420;2022-12-10T03:05:29;98609.41;;;4.27;96.36
48964;BME280;34776;48.180;16.420;2022-12-10T03:08:05;98601.31;;;4.32;96.88
48964;BME280;34776;48.180;16.420;2022-12-10T03:10:44;98595.34;;;4.29;95.75
48964;BME280;34776;48.180;16.420;2022-12-10T03:13:15;98596.94;;;4.33;96.33
48964;BME280;34776;48.180;16.420;2022-12-10T03:15:42;98601.88;;;4.39;96.88
48964;BME280;34776;48.180;16.420;2022-12-10T03:18:10;98596.63;;;4.39;96.46
48964;BME280;34776;48.180;16.420;2022-12-10T03:20:39;98598.50;;;4.37;96.14
48964;BME280;34776;48.180;16.420;2022-12-10T03:23:10;98604.50;;;4.39;96.51
48964;BME280;34776;48.180;16.420;2022-12-10T03:25:37;98602.97;;;4.35;95.77
48964;BME280;34776;48.180;16.420;2022-12-10T03:28:04;98595.19;;;4.32;95.83
48964;BME280;34776;48.180;16.420;2022-12-10T03:30:32;98593.50;;;4.31;95.92
48964;BME280;34776;48.180;16.420;2022-12-10T03:32:58;98601.59;;;4.26;95.06
48964;BME280;34776;48.180;16.420;2022-12-10T03:35:24;98599.63;;;4.31;95.91
48964;BME280;34776;48.180;16.420;2022-12-10T03:37:50;98606.22;;;4.40;96.26
48964;BME280;34776;48.180;16.420;2022-12-10T03:40:21;98607.78;;;4.44;96.52
48964;BME280;34776;48.180;16.420;2022-12-10T03:42:47;98615.53;;;4.47;96.12
48964;BME280;34776;48.180;16.420;2022-12-10T03:45:12;98616.03;;;4.36;94.94
48964;BME280;34776;48.180;16.420;2022-12-10T03:47:39;98616.25;;;4.32;95.06
48964;BME280;34776;48.180;16.420;2022-12-10T03:50:05;98615.41;;;4.31;94.83
48964;BME280;34776;48.180;16.420;2022-12-10T03:52:30;98618.81;;;4.33;95.06
48964;BME280;34776;48.180;16.420;2022-12-10T03:54:56;98624.13;;;4.32;94.31
48964;BME280;34776;48.180;16.420;2022-12-10T03:57:21;98633.91;;;4.28;94.14
48964;BME280;34776;48.180;16.420;2022-12-10T03:59:46;98647.94;;;4.29;94.35
48964;BME280;34776;48.180;16.420;2022-12-10T04:02:12;98652.31;;;4.28;94.06
48964;BME280;34776;48.180;16.420;2022-12-10T04:04:37;98661.88;;;4.31;94.56
48964;BME280;34776;48.180;16.420;2022-12-10T04:07:02;98659.09;;;4.34;94.48
48964;BME280;34776;48.180;16.420;2022-12-10T04:09:28;98654.78;;;4.33;94.01
48964;BME280;34776;48.180;16.420;2022-12-10T04:12:00;98667.25;;;4.27;93.21
48964;BME280;34776;48.180;16.420;2022-12-10T04:14:26;98664.78;;;4.24;92.94
48964;BME280;34776;48.180;16.420;2022-12-10T04:17:11;98662.00;;;4.27;92.76
48964;BME280;34776;48.180;16.420;2022-12-10T04:19:37;98650.38;;;4.33;93.54
48964;BME280;34776;48.180;16.420;2022-12-10T04:22:02;98655.25;;;4.41;93.66
48964;BME280;34776;48.180;16.420;2022-12-10T04:24:47;98655.94;;;4.46;93.61
48964;BME280;34776;48.180;16.420;2022-12-10T04:27:38;98655.97;;;4.44;93.29
48964;BME280;34776;48.180;16.420;2022-12-10T04:30:10;98643.97;;;4.39;92.56
48964;BME280;34776;48.180;16.420;2022-12-10T04:32:36;98655.34;;;4.39;92.63
48964;BME280;34776;48.180;16.420;2022-12-10T04:35:02;98651.09;;;4.37;92.07
48964;BME280;34776;48.180;16.420;2022-12-10T04:37:28;98650.38;;;4.33;91.78
48964;BME280;34776;48.180;16.420;2022-12-10T04:39:53;98660.72;;;4.36;91.96
48964;BME280;34776;48.180;16.420;2022-12-10T04:42:20;98659.09;;;4.34;91.58
48964;BME280;34776;48.180;16.420;2022-12-10T04:44:46;98661.63;;;4.37;91.69
48964;BME280;34776;48.180;16.420;2022-12-10T04:47:12;98659.63;;;4.42;91.83
48964;BME280;34776;48.180;16.420;2022-12-10T04:49:38;98660.72;;;4.36;90.81
48964;BME280;34776;48.180;16.420;2022-12-10T04:52:04;98659.72;;;4.39;91.07
48964;BME280;34776;48.180;16.420;2022-12-10T04:54:30;98658.03;;;4.38;91.01
48964;BME280;34776;48.180;16.420;2022-12-10T04:56:55;98651.72;;;4.42;91.23
48964;BME280;34776;48.180;16.420;2022-12-10T04:59:21;98654.19;;;4.45;90.91
48964;BME280;34776;48.180;16.420;2022-12-10T05:01:46;98639.41;;;4.42;90.87
48964;BME280;34776;48.180;16.420;2022-12-10T05:04:15;98643.69;;;4.45;91.02
48964;BME280;34776;48.180;16.420;2022-12-10T05:06:41;98640.25;;;4.43;90.46
48964;BME280;34776;48.180;16.420;2022-12-10T05:09:06;98645.41;;;4.46;90.88
48964;BME280;34776;48.180;16.420;2022-12-10T05:11:33;98653.03;;;4.52;90.92
48964;BME280;34776;48.180;16.420;2022-12-10T05:13:59;98647.69;;;4.54;90.77
48964;BME280;34776;48.180;16.420;2022-12-10T05:16:27;98648.66;;;4.51;90.15
48964;BME280;34776;48.180;16.420;2022-12-10T05:18:53;98643.56;;;4.48;90.08
48964;BME280;34776;48.180;16.420;2022-12-10T05:21:20;98650.50;;;4.49;90.38
48964;BME280;34776;48.180;16.420;2022-12-10T05:23:48;98651.50;;;4.46;89.99
48964;BME280;34776;48.180;16.420;2022-12-10T05:26:16;98644.63;;;4.44;89.79
48964;BME280;34776;48.180;16.420;2022-12-10T05:28:44;98638.56;;;4.42;89.79
48964;BME280;34776;48.180;16.420;2022-12-10T05:31:19;98635.94;;;4.42;89.69
48964;BME280;34776;48.180;16.420;2022-12-10T05:33:44;98632.75;;;4.35;88.84
48964;BME280;34776;48.180;16.420;2022-12-10T05:36:12;98639.78;;;4.35;89.13
48964;BME280;34776;48.180;16.420;2022-12-10T05:38:38;98639.78;;;4.35;89.26
48964;BME280;34776;48.180;16.420;2022-12-10T05:41:06;98646.16;;;4.29;88.69
48964;BME280;34776;48.180;16.420;2022-12-10T05:43:32;98643.66;;;4.26;88.49
48964;BME280;34776;48.180;16.420;2022-12-10T05:46:01;98647.84;;;4.30;89.37
48964;BME280;34776;48.180;16.420;2022-12-10T05:48:27;98637.16;;;4.35;89.29
48964;BME280;34776;48.180;16.420;2022-12-10T05:50:53;98645.16;;;4.32;88.45
48964;BME280;34776;48.180;16.420;2022-12-10T05:53:18;98648.22;;;4.22;87.90
48964;BME280;34776;48.180;16.420;2022-12-10T05:55:44;98656.81;;;4.26;88.47
48964;BME280;34776;48.180;16.420;2022-12-10T05:58:09;98665.56;;;4.26;88.26
48964;BME280;34776;48.180;16.420;2022-12-10T06:00:35;98666.34;;;4.29;88.31
48964;BME280;34776;48.180;16.420;2022-12-10T06:03:03;98674.38;;;4.25;87.92
48964;BME280;34776;48.180;16.420;2022-12-10T06:05:28;98676.19;;;4.23;87.74
48964;BME280;34776;48.180;16.420;2022-12-10T06:07:54;98689.28;;;4.25;87.72
48964;BME280;34776;48.180;16.420;2022-12-10T06:10:19;98693.44;;;4.31;87.79
48964;BME280;34776;48.180;16.420;2022-12-10T06:12:44;98700.19;;;4.36;87.84
48964;BME280;34776;48.180;16.420;2022-12-10T06:15:10;98706.16;;;4.40;87.63
48964;BME280;34776;48.180;16.420;2022-12-10T06:17:35;98704.31;;;4.42;87.40
48964;BME280;34776;48.180;16.420;2022-12-10T06:20:01;98699.97;;;4.41;87.43
48964;BME280;34776;48.180;16.420;2022-12-10T06:22:27;98698.13;;;4.43;87.35
48964;BME280;34776;48.180;16.420;2022-12-10T06:24:52;98698.84;;;4.46;87.08
48964;BME280;34776;48.180;16.420;2022-12-10T06:27:17;98708.53;;;4.46;86.79
48964;BME280;34776;48.180;16.420;2022-12-10T06:29:44;98712.06;;;4.45;86.76
48964;BME280;34776;48.180;16.420;2022-12-10T06:32:09;98712.78;;;4.48;86.46
48964;BME280;34776;48.180;16.420;2022-12-10T06:34:34;98722.69;;;4.43;86.02
48964;BME280;34776;48.180;16.420;2022-12-10T06:37:00;98730.00;;;4.37;85.37
48964;BME280;34776;48.180;16.420;2022-12-10T06:39:25;98729.78;;;4.41;85.82
48964;BME280;34776;48.180;16.420;2022-12-10T06:41:51;98732.06;;;4.49;86.08
48964;BME280;34776;48.180;16.420;2022-12-10T06:44:16;98731.88;;;4.54;85.89
48964;BME280;34776;48.180;16.420;2022-12-10T06:46:42;98727.31;;;4.57;85.81
48964;BME280;34776;48.180;16.420;2022-12-10T06:49:07;98723.78;;;4.58;85.43
48964;BME280;34776;48.180;16.420;2022-12-10T06:51:33;98716.78;;;4.57;85.49
48964;BME280;34776;48.180;16.420;2022-12-10T06:53:58;98716.00;;;4.55;85.35
48964;BME280;34776;48.180;16.420;2022-12-10T06:56:24;98714.03;;;4.60;85.43
48964;BME280;34776;48.180;16.420;2022-12-10T06:58:49;98716.66;;;4.60;85.26
48964;BME280;34776;48.180;16.420;2022-12-10T07:01:23;98704.41;;;4.59;85.21
48964;BME280;34776;48.180;16.420;2022-12-10T07:03:52;98702.72;;;4.58;85.29
48964;BME280;34776;48.180;16.420;2022-12-10T07:06:19;98706.41;;;4.54;84.96
48964;BME280;34776;48.180;16.420;2022-12-10T07:08:45;98697.47;;;4.58;85.35
48964;BME280;34776;48.180;16.420;2022-12-10T07:11:13;98705.75;;;4.49;84.68
48964;BME280;34776;48.180;16.420;2022-12-10T07:13:39;98704.69;;;4.53;85.01
48964;BME280;34776;48.180;16.420;2022-12-10T07:16:19;98700.72;;;4.63;85.42
48964;BME280;34776;48.180;16.420;2022-12-10T07:18:47;98710.19;;;4.67;85.12
48964;BME280;34776;48.180;16.420;2022-12-10T07:21:19;98699.72;;;4.66;84.69
48964;BME280;34776;48.180;16.420;2022-12-10T07:23:45;98698.75;;;4.68;84.79
48964;BME280;34776;48.180;16.420;2022-12-10T07:26:11;98694.34;;;4.69;84.66
48964;BME280;34776;48.180;16.420;2022-12-10T07:28:36;98701.47;;;4.67;84.79
48964;BME280;34776;48.180;16.420;2022-12-10T07:31:03;98695.47;;;4.63;84.73
48964;BME280;34776;48.180;16.420;2022-12-10T07:33:29;98684.94;;;4.63;84.73
48964;BME280;34776;48.180;16.420;2022-12-10T07:35:54;98683.38;;;4.59;84.81
48964;BME280;34776;48.180;16.420;2022-12-10T07:38:19;98684.81;;;4.66;85.02
48964;BME280;34776;48.180;16.420;2022-12-10T07:40:45;98681.19;;;4.69;84.92
48964;BME280;34776;48.180;16.420;2022-12-10T07:43:10;98679.47;;;4.68;84.71
48964;BME280;34776;48.180;16.420;2022-12-10T07:45:36;98685.41;;;4.73;85.08
48964;BME280;34776;48.180;16.420;2022-12-10T07:48:02;98683.88;;;4.67;84.29
48964;BME280;34776;48.180;16.420;2022-12-10T07:50:27;98683.81;;;4.69;84.69
48964;BME280;34776;48.180;16.420;2022-12-10T07:52:53;98675.22;;;4.65;84.10
48964;BME280;34776;48.180;16.420;2022-12-10T07:55:18;98675.22;;;4.65;84.21
48964;BME280;34776;48.180;16.420;2022-12-10T07:57:43;98670.94;;;4.63;84.03
48964;BME280;34776;48.180;16.420;2022-12-10T08:00:09;98672.72;;;4.62;84.13
48964;BME280;34776;48.180;16.420;2022-12-10T08:02:35;98673.50;;;4.64;83.82
48964;BME280;34776;48.180;16.420;2022-12-10T08:05:00;98671.72;;;4.65;83.63
48964;BME280;34776;48.180;16.420;2022-12-10T08:07:26;98678.63;;;4.67;83.48
48964;BME280;34776;48.180;16.420;2022-12-10T08:09:51;98687.81;;;4.78;83.72
48964;BME280;34776;48.180;16.420;2022-12-10T08:12:16;98694.19;;;4.91;83.67
48964;BME280;34776;48.180;16.420;2022-12-10T08:14:42;98692.63;;;4.87;82.74
48964;BME280;34776;48.180;16.420;2022-12-10T08:17:07;98685.53;;;4.89;83.12
48964;BME280;34776;48.180;16.420;2022-12-10T08:19:33;98683.56;;;4.94;82.87
48964;BME280;34776;48.180;16.420;2022-12-10T08:21:58;98690.78;;;4.89;82.48
48964;BME280;34776;48.180;16.420;2022-12-10T08:24:24;98678.69;;;4.85;82.57
48964;BME280;34776;48.180;16.420;2022-12-10T08:26:49;98676.84;;;4.87;82.66
48964;BME280;34776;48.180;16.420;2022-12-10T08:29:16;98677.84;;;4.84;82.71
48964;BME280;34776;48.180;16.420;2022-12-10T08:31:43;98684.56;;;4.73;82.60
48964;BME280;34776;48.180;16.420;2022-12-10T08:34:16;98687.19;;;4.73;82.93
48964;BME280;34776;48.180;16.420;2022-12-10T08:36:42;98687.81;;;4.78;83.26
48964;BME280;34776;48.180;16.420;2022-12-10T08:39:08;98693.69;;;4.83;83.14
48964;BME280;34776;48.180;16.420;2022-12-10T08:41:35;98692.50;;;4.90;82.93
48964;BME280;34776;48.180;16.420;2022-12-10T08:44:01;98694.06;;;4.94;82.73
48964;BME280;34776;48.180;16.420;2022-12-10T08:46:27;98695.66;;;4.98;82.76
48964;BME280;34776;48.180;16.420;2022-12-10T08:48:54;98691.09;;;5.02;82.57
48964;BME280;34776;48.180;16.420;2022-12-10T08:51:20;98692.84;;;5.01;82.29
48964;BME280;34776;48.180;16.420;2022-12-10T08:53:46;98697.84;;;5.07;82.46
48964;BME280;34776;48.180;16.420;2022-12-10T08:56:12;98698.63;;;5.09;82.12
48964;BME280;34776;48.180;16.420;2022-12-10T08:58:38;98703.25;;;5.04;81.51
48964;BME280;34776;48.180;16.420;2022-12-10T09:01:12;98709.38;;;5.05;82.22
48964;BME280;34776;48.180;16.420;2022-12-10T09:03:38;98712.72;;;5.08;81.99
48964;BME280;34776;48.180;16.420;2022-12-10T09:06:09;98714.84;;;5.00;81.52
48964;BME280;34776;48.180;16.420;2022-12-10T09:08:35;98712.56;;;4.93;81.23
48964;BME280;34776;48.180;16.420;2022-12-10T09:11:09;98711.00;;;4.88;81.44
48964;BME280;34776;48.180;16.420;2022-12-10T09:13:35;98709.16;;;4.91;81.82
48964;BME280;34776;48.180;16.420;2022-12-10T09:16:00;98711.72;;;4.92;81.78
48964;BME280;34776;48.180;16.420;2022-12-10T09:18:26;98717.25;;;4.86;81.68
48964;BME280;34776;48.180;16.420;2022-12-10T09:20:51;98720.69;;;4.88;81.80
48964;BME280;34776;48.180;16.420;2022-12-10T09:23:17;98720.03;;;4.83;81.53
48964;BME280;34776;48.180;16.420;2022-12-10T09:25:42;98720.19;;;4.80;81.84
48964;BME280;34776;48.180;16.420;2022-12-10T09:28:08;98710.28;;;4.85;81.81
48964;BME280;34776;48.180;16.420;2022-12-10T09:30:33;98712.84;;;4.86;81.49
48964;BME280;34776;48.180;16.420;2022-12-10T09:32:58;98703.03;;;4.90;81.55
48964;BME280;34776;48.180;16.420;2022-12-10T09:35:24;98706.47;;;4.92;81.45
48964;BME280;34776;48.180;16.420;2022-12-10T09:37:49;98706.31;;;4.95;81.14
48964;BME280;34776;48.180;16.420;2022-12-10T09:40:29;98697.50;;;4.96;81.64
48964;BME280;34776;48.180;16.420;2022-12-10T09:43:16;98697.34;;;4.99;81.46
48964;BME280;34776;48.180;16.420;2022-12-10T09:49:02;98705.31;;;5.17;81.05
48964;BME280;34776;48.180;16.420;2022-12-10T09:51:34;98704.44;;;5.16;80.50
48964;BME280;34776;48.180;16.420;2022-12-10T09:54:02;98707.19;;;5.15;80.95
48964;BME280;34776;48.180;16.420;2022-12-10T09:56:32;98715.97;;;5.14;80.94
48964;BME280;34776;48.180;16.420;2022-12-10T09:59:10;98721.41;;;5.11;80.96
48964;BME280;34776;48.180;16.420;2022-12-10T10:01:40;98715.84;;;5.17;80.50
48964;BME280;34776;48.180;16.420;2022-12-10T10:04:05;98716.72;;;5.17;80.81
48964;BME280;34776;48.180;16.420;2022-12-10T10:06:31;98718.50;;;5.17;80.23
48964;BME280;34776;48.180;16.420;2022-12-10T10:08:59;98712.84;;;5.05;79.60
48964;BME280;34776;48.180;16.420;2022-12-10T10:11:31;98703.38;;;5.01;79.83
48964;BME280;34776;48.180;16.420;2022-12-10T10:14:22;98697.13;;;5.04;79.91
48964;BME280;34776;48.180;16.420;2022-12-10T10:17:02;98698.91;;;5.03;79.70
48964;BME280;34776;48.180;16.420;2022-12-10T10:19:31;98693.50;;;5.06;79.50
48964;BME280;34776;48.180;16.420;2022-12-10T10:22:00;98689.16;;;5.05;79.46
48964;BME280;34776;48.180;16.420;2022-12-10T10:24:35;98689.66;;;5.14;79.47
48964;BME280;34776;48.180;16.420;2022-12-10T10:27:30;98692.78;;;5.22;79.11
48964;BME280;34776;48.180;16.420;2022-12-10T10:29:59;98699.50;;;5.46;79.58
48964;BME280;34776;48.180;16.420;2022-12-10T10:32:52;98697.69;;;5.66;78.42
48964;BME280;34776;48.180;16.420;2022-12-10T10:35:26;98696.00;;;5.65;77.46
48964;BME280;34776;48.180;16.420;2022-12-10T10:37:58;98696.91;;;5.64;76.94
48964;BME280;34776;48.180;16.420;2022-12-10T10:40:28;98693.25;;;5.66;76.79
48964;BME280;34776;48.180;16.420;2022-12-10T10:42:56;98686.97;;;5.69;76.64
48964;BME280;34776;48.180;16.420;2022-12-10T10:45:35;98677.53;;;5.82;76.86
48964;BME280;34776;48.180;16.420;2022-12-10T10:48:10;98675.56;;;6.05;76.61
48964;BME280;34776;48.180;16.420;2022-12-10T10:50:44;98665.44;;;6.13;75.82
48964;BME280;34776;48.180;16.420;2022-12-10T10:53:35;98667.69;;;6.21;74.68
48964;BME280;34776;48.180;16.420;2022-12-10T10:56:15;98668.69;;;6.36;75.40
48964;BME280;34776;48.180;16.420;2022-12-10T11:01:52;98652.38;;;6.45;74.70
48964;BME280;34776;48.180;16.420;2022-12-10T11:06:50;98645.75;;;6.69;74.71
48964;BME280;34776;48.180;16.420;2022-12-10T11:09:27;98636.66;;;6.75;74.05
48964;BME280;34776;48.180;16.420;2022-12-10T11:12:29;98640.91;;;6.62;73.09
48964;BME280;34776;48.180;16.420;2022-12-10T11:14:58;98642.03;;;6.74;73.71
48964;BME280;34776;48.180;16.420;2022-12-10T11:17:25;98639.38;;;6.74;73.58
48964;BME280;34776;48.180;16.420;2022-12-10T11:20:01;98634.44;;;6.67;73.35
48964;BME280;34776;48.180;16.420;2022-12-10T11:22:29;98632.91;;;6.63;73.51
48964;BME280;34776;48.180;16.420;2022-12-10T11:24:56;98634.75;;;6.61;73.66
48964;BME280;34776;48.180;16.420;2022-12-10T11:30:14;98619.94;;;6.43;73.04
48964;BME280;34776;48.180;16.420;2022-12-10T11:38:50;98610.50;;;6.39;73.58
48964;BME280;34776;48.180;16.420;2022-12-10T11:41:36;98608.00;;;6.36;73.80
48964;BME280;34776;48.180;16.420;2022-12-10T11:55:36;98615.06;;;5.67;74.90
48964;BME280;34776;48.180;16.420;2022-12-10T12:00:58;98622.88;;;5.68;74.76
48964;BME280;34776;48.180;16.420;2022-12-10T12:03:54;98622.88;;;5.68;74.92
48964;BME280;34776;48.180;16.420;2022-12-10T12:12:08;98608.63;;;5.73;74.65
48964;BME280;34776;48.180;16.420;2022-12-10T12:15:05;98606.81;;;5.73;74.08
48964;BME280;34776;48.180;16.420;2022-12-10T12:17:41;98602.88;;;5.64;74.53
48964;BME280;34776;48.180;16.420;2022-12-10T12:20:18;98617.22;;;5.59;74.86
48964;BME280;34776;48.180;16.420;2022-12-10T12:25:47;98611.63;;;5.47;74.89
48964;BME280;34776;48.180;16.420;2022-12-10T12:30:53;98611.97;;;5.22;75.51
48964;BME280;34776;48.180;16.420;2022-12-10T12:33:29;98606.94;;;5.18;75.76
48964;BME280;34776;48.180;16.420;2022-12-10T12:36:02;98610.66;;;5.14;76.00
48964;BME280;34776;48.180;16.420;2022-12-10T12:38:43;98598.44;;;5.13;76.42
48964;BME280;34776;48.180;16.420;2022-12-10T12:41:48;98602.41;;;5.21;76.43
48964;BME280;34776;48.180;16.420;2022-12-10T12:50:24;98596.59;;;5.32;76.58
48964;BME280;34776;48.180;16.420;2022-12-10T12:52:54;98599.53;;;5.43;76.35
48964;BME280;34776;48.180;16.420;2022-12-10T12:55:31;98604.03;;;5.41;75.91
48964;BME280;34776;48.180;16.420;2022-12-10T12:58:47;98610.25;;;5.40;75.82
48964;BME280;34776;48.180;16.420;2022-12-10T13:01:20;98613.66;;;5.42;75.23
48964;BME280;34776;48.180;16.420;2022-12-10T13:03:49;98616.41;;;5.39;75.71
48964;BME280;34776;48.180;16.420;2022-12-10T13:14:35;98607.44;;;5.43;75.60
48964;BME280;34776;48.180;16.420;2022-12-10T13:19:49;98623.13;;;5.46;74.91
48964;BME280;34776;48.180;16.420;2022-12-10T13:22:43;98643.66;;;5.40;74.99
48964;BME280;34776;48.180;16.420;2022-12-10T13:25:17;98639.94;;;5.44;75.34
48964;BME280;34776;48.180;16.420;2022-12-10T13:27:57;98641.63;;;5.45;75.29
48964;BME280;34776;48.180;16.420;2022-12-10T13:30:31;98647.19;;;5.39;74.80
48964;BME280;34776;48.180;16.420;2022-12-10T13:33:17;98641.38;;;5.32;75.07
48964;BME280;34776;48.180;16.420;2022-12-10T13:35:49;98635.94;;;5.35;74.05
48964;BME280;34776;48.180;16.420;2022-12-10T13:38:24;98642.16;;;5.34;74.82
48964;BME280;34776;48.180;16.420;2022-12-10T13:40:59;98636.41;;;5.26;75.19
48964;BME280;34776;48.180;16.420;2022-12-10T13:43:51;98634.47;;;5.29;75.35
48964;BME280;34776;48.180;16.420;2022-12-10T13:49:19;98641.84;;;5.23;75.49
48964;BME280;34776;48.180;16.420;2022-12-10T13:51:59;98631.50;;;5.18;75.50
48964;BME280;34776;48.180;16.420;2022-12-10T14:01:00;98643.84;;;4.99;75.10
48964;BME280;34776;48.180;16.420;2022-12-10T14:08:35;98628.84;;;4.82;76.42
48964;BME280;34776;48.180;16.420;2022-12-10T14:11:05;98627.00;;;4.84;76.55
48964;BME280;34776;48.180;16.420;2022-12-10T14:13:42;98629.34;;;4.90;76.51
48964;BME280;34776;48.180;16.420;2022-12-10T14:16:12;98633.75;;;4.90;76.77
48964;BME280;34776;48.180;16.420;2022-12-10T14:18:41;98630.25;;;4.89;76.55
48964;BME280;34776;48.180;16.420;2022-12-10T14:21:08;98638.59;;;4.80;76.45
48964;BME280;34776;48.180;16.420;2022-12-10T14:23:44;98628.34;;;4.74;76.73
48964;BME280;34776;48.180;16.420;2022-12-10T14:26:16;98639.81;;;4.73;76.95
48964;BME280;34776;48.180;16.420;2022-12-10T14:28:50;98639.94;;;4.70;76.98
48964;BME280;34776;48.180;16.420;2022-12-10T14:31:43;98638.59;;;4.61;77.11
48964;BME280;34776;48.180;16.420;2022-12-10T14:34:08;98636.97;;;4.58;77.35
48964;BME280;34776;48.180;16.420;2022-12-10T14:36:50;98637.97;;;4.56;77.48
48964;BME280;34776;48.180;16.420;2022-12-10T14:39:43;98637.03;;;4.57;77.74
48964;BME280;34776;48.180;16.420;2022-12-10T14:42:12;98637.75;;;4.60;77.55